Weather at Abu Simbel Airport

Public forecast

Using degrees Celsius for public forecast. Weather courtesy of forecast.io.

Current aviation weather report (METAR) for Abu Simbel Airport

2024/05/28 03:00 (retrieved 1 hour ago)

HEBL 280300Z 01007KT CAVOK 30/15 Q1007 NOSIG

Closest aviation forecast (TAF) to Abu Simbel Airport

Forecast is more than 12 hours old.

Closest forecast is Gondar Airport, 678.6 nm (1,256.8 km) SSE.

2024/05/27 06:20 (retrieved 22 hours ago)

TAF HAGN 270330Z 2706/2812 36006KT 9999 SCT030 FEW090